sensor_id;sensor_type;location;lat;lon;timestamp;pressure;altitude;pressure_sealevel;temperature;humidity
6853;BME280;3465;42.144;24.722;2023-04-28T00:02:01;145808.09;;;11.56;54.52
6853;BME280;3465;42.144;24.722;2023-04-28T00:04:27;145840.75;;;11.70;55.21
6853;BME280;3465;42.144;24.722;2023-04-28T00:06:52;145844.50;;;11.71;54.93
6853;BME280;3465;42.144;24.722;2023-04-28T00:09:18;145848.28;;;11.73;54.74
6853;BME280;3465;42.144;24.722;2023-04-28T00:11:44;145847.06;;;11.72;54.58
6853;BME280;3465;42.144;24.722;2023-04-28T00:14:10;145853.28;;;11.75;54.46
6853;BME280;3465;42.144;24.722;2023-04-28T00:16:36;145859.53;;;11.77;54.72
6853;BME280;3465;42.144;24.722;2023-04-28T00:19:01;145852.03;;;11.74;54.17
6853;BME280;3465;42.144;24.722;2023-04-28T00:21:26;145854.56;;;11.75;54.07
6853;BME280;3465;42.144;24.722;2023-04-28T00:23:53;145844.50;;;11.71;54.84
6853;BME280;3465;42.144;24.722;2023-04-28T00:26:18;145827.00;;;11.64;55.13
6853;BME280;3465;42.144;24.722;2023-04-28T00:28:43;145816.91;;;11.60;55.00
6853;BME280;3465;42.144;24.722;2023-04-28T00:31:13;145799.31;;;11.53;55.36
6853;BME280;3465;42.144;24.722;2023-04-28T00:33:39;145786.84;;;11.48;55.45
6853;BME280;3465;42.144;24.722;2023-04-28T00:36:05;145806.91;;;11.56;55.17
6853;BME280;3465;42.144;24.722;2023-04-28T00:38:31;145729.19;;;11.25;55.06
6853;BME280;3465;42.144;24.722;2023-04-28T00:40:56;145774.31;;;11.43;55.75
6853;BME280;3465;42.144;24.722;2023-04-28T00:43:22;145779.28;;;11.45;55.40
6853;BME280;3465;42.144;24.722;2023-04-28T00:45:50;145747.94;;;11.32;56.49
6853;BME280;3465;42.144;24.722;2023-04-28T00:48:17;145742.94;;;11.30;56.40
6853;BME280;3465;42.144;24.722;2023-04-28T00:50:43;145756.75;;;11.36;56.08
6853;BME280;3465;42.144;24.722;2023-04-28T00:53:10;145727.91;;;11.24;56.62
6853;BME280;3465;42.144;24.722;2023-04-28T00:55:36;145724.16;;;11.23;56.53
6853;BME280;3465;42.144;24.722;2023-04-28T00:58:01;145720.41;;;11.21;57.14
6853;BME280;3465;42.144;24.722;2023-04-28T01:00:27;145724.16;;;11.23;57.53
6853;BME280;3465;42.144;24.722;2023-04-28T01:02:53;145706.63;;;11.16;57.74
6853;BME280;3465;42.144;24.722;2023-04-28T01:05:19;145702.84;;;11.14;58.17
6853;BME280;3465;42.144;24.722;2023-04-28T01:07:45;145676.53;;;11.04;58.43
6853;BME280;3465;42.144;24.722;2023-04-28T01:10:10;145645.25;;;10.91;58.55
6853;BME280;3465;42.144;24.722;2023-04-28T01:12:35;145659.00;;;10.97;59.31
6853;BME280;3465;42.144;24.722;2023-04-28T01:15:02;145633.97;;;10.87;59.09
6853;BME280;3465;42.144;24.722;2023-04-28T01:17:27;145616.41;;;10.80;59.97
6853;BME280;3465;42.144;24.722;2023-04-28T01:19:53;145596.38;;;10.72;60.36
6853;BME280;3465;42.144;24.722;2023-04-28T01:22:18;145581.38;;;10.66;60.85
6853;BME280;3465;42.144;24.722;2023-04-28T01:24:44;145561.31;;;10.58;61.50
6853;BME280;3465;42.144;24.722;2023-04-28T01:27:09;145525.00;;;10.43;62.50
6853;BME280;3465;42.144;24.722;2023-04-28T01:29:35;145538.75;;;10.49;62.73
6853;BME280;3465;42.144;24.722;2023-04-28T01:32:01;145528.75;;;10.45;63.16
6853;BME280;3465;42.144;24.722;2023-04-28T01:34:26;145508.72;;;10.37;64.03
6853;BME280;3465;42.144;24.722;2023-04-28T01:36:51;145506.25;;;10.36;63.72
6853;BME280;3465;42.144;24.722;2023-04-28T01:39:17;145512.47;;;10.38;64.01
6853;BME280;3465;42.144;24.722;2023-04-28T01:41:42;145456.13;;;10.16;64.29
6853;BME280;3465;42.144;24.722;2023-04-28T01:44:08;145476.16;;;10.24;64.24
6853;BME280;3465;42.144;24.722;2023-04-28T01:46:33;145463.66;;;10.19;64.21
6853;BME280;3465;42.144;24.722;2023-04-28T01:48:59;145463.66;;;10.19;64.45
6853;BME280;3465;42.144;24.722;2023-04-28T01:51:24;145459.88;;;10.17;64.94
6853;BME280;3465;42.144;24.722;2023-04-28T01:53:51;145422.28;;;10.02;64.43
6853;BME280;3465;42.144;24.722;2023-04-28T01:56:17;145429.81;;;10.05;64.54
6853;BME280;3465;42.144;24.722;2023-04-28T01:58:42;145406.03;;;9.95;64.26
6853;BME280;3465;42.144;24.722;2023-04-28T02:01:07;145428.56;;;10.04;64.09
6853;BME280;3465;42.144;24.722;2023-04-28T02:03:33;145432.31;;;10.06;64.44
6853;BME280;3465;42.144;24.722;2023-04-28T02:05:58;145411.00;;;9.97;64.43
6853;BME280;3465;42.144;24.722;2023-04-28T02:08:24;145426.06;;;10.03;64.30
6853;BME280;3465;42.144;24.722;2023-04-28T02:10:49;145393.53;;;9.90;64.48
6853;BME280;3465;42.144;24.722;2023-04-28T02:13:15;145378.47;;;9.84;64.77
6853;BME280;3465;42.144;24.722;2023-04-28T02:15:41;145368.47;;;9.80;64.43
6853;BME280;3465;42.144;24.722;2023-04-28T02:18:08;145369.75;;;9.81;64.25
6853;BME280;3465;42.144;24.722;2023-04-28T02:20:33;145375.97;;;9.83;64.00
6853;BME280;3465;42.144;24.722;2023-04-28T02:22:58;145387.25;;;9.88;65.73
6853;BME280;3465;42.144;24.722;2023-04-28T02:25:24;145383.50;;;9.86;65.60
6853;BME280;3465;42.144;24.722;2023-04-28T02:27:49;145337.19;;;9.68;65.93
6853;BME280;3465;42.144;24.722;2023-04-28T02:30:15;145367.22;;;9.80;66.55
6853;BME280;3465;42.144;24.722;2023-04-28T02:32:40;145360.97;;;9.77;66.25
6853;BME280;3465;42.144;24.722;2023-04-28T02:35:06;145348.47;;;9.72;66.34
6853;BME280;3465;42.144;24.722;2023-04-28T02:37:32;145337.19;;;9.68;66.54
6853;BME280;3465;42.144;24.722;2023-04-28T02:39:57;145333.47;;;9.66;66.21
6853;BME280;3465;42.144;24.722;2023-04-28T02:42:22;145330.91;;;9.65;65.22
6853;BME280;3465;42.144;24.722;2023-04-28T02:44:48;145269.66;;;9.41;64.92
6853;BME280;3465;42.144;24.722;2023-04-28T02:47:13;145315.91;;;9.59;65.21
6853;BME280;3465;42.144;24.722;2023-04-28T02:49:39;145287.13;;;9.48;64.34
6853;BME280;3465;42.144;24.722;2023-04-28T02:52:04;145307.16;;;9.56;64.82
6853;BME280;3465;42.144;24.722;2023-04-28T02:54:29;145278.38;;;9.44;64.64
6853;BME280;3465;42.144;24.722;2023-04-28T02:56:56;145288.41;;;9.48;65.09
6853;BME280;3465;42.144;24.722;2023-04-28T02:59:22;145275.88;;;9.43;65.28
6853;BME280;3465;42.144;24.722;2023-04-28T03:01:50;145279.63;;;9.45;64.93
6853;BME280;3465;42.144;24.722;2023-04-28T03:04:16;145270.88;;;9.41;64.44
6853;BME280;3465;42.144;24.722;2023-04-28T03:06:41;145279.63;;;9.45;63.87
6853;BME280;3465;42.144;24.722;2023-04-28T03:09:08;145269.66;;;9.41;64.42
6853;BME280;3465;42.144;24.722;2023-04-28T03:11:33;145223.34;;;9.22;63.63
6853;BME280;3465;42.144;24.722;2023-04-28T03:13:59;145264.63;;;9.39;63.71
6853;BME280;3465;42.144;24.722;2023-04-28T03:16:24;145242.09;;;9.30;63.75
6853;BME280;3465;42.144;24.722;2023-04-28T03:18:50;145240.88;;;9.29;63.72
6853;BME280;3465;42.144;24.722;2023-04-28T03:21:15;145235.84;;;9.27;63.64
6853;BME280;3465;42.144;24.722;2023-04-28T03:23:40;145228.34;;;9.24;63.42
6853;BME280;3465;42.144;24.722;2023-04-28T03:26:07;145228.34;;;9.24;63.44
6853;BME280;3465;42.144;24.722;2023-04-28T03:28:32;145230.84;;;9.25;63.33
6853;BME280;3465;42.144;24.722;2023-04-28T03:30:58;145219.59;;;9.21;63.32
6853;BME280;3465;42.144;24.722;2023-04-28T03:33:23;145178.31;;;9.04;63.57
6853;BME280;3465;42.144;24.722;2023-04-28T03:35:49;145178.31;;;9.04;63.46
6853;BME280;3465;42.144;24.722;2023-04-28T03:38:14;145187.06;;;9.08;63.00
6853;BME280;3465;42.144;24.722;2023-04-28T03:40:40;145173.34;;;9.02;64.18
6853;BME280;3465;42.144;24.722;2023-04-28T03:43:05;145192.06;;;9.10;63.60
6853;BME280;3465;42.144;24.722;2023-04-28T03:45:31;145182.06;;;9.06;64.63
6853;BME280;3465;42.144;24.722;2023-04-28T03:47:56;145170.81;;;9.01;65.09
6853;BME280;3465;42.144;24.722;2023-04-28T03:50:22;145155.81;;;8.95;64.08
6853;BME280;3465;42.144;24.722;2023-04-28T03:52:47;145153.31;;;8.94;63.91
6853;BME280;3465;42.144;24.722;2023-04-28T03:55:13;145207.06;;;9.16;63.85
6853;BME280;3465;42.144;24.722;2023-04-28T03:57:38;145192.06;;;9.10;63.98
6853;BME280;3465;42.144;24.722;2023-04-28T04:00:04;145205.84;;;9.15;64.16
6853;BME280;3465;42.144;24.722;2023-04-28T04:02:29;145220.84;;;9.21;63.31
6853;BME280;3465;42.144;24.722;2023-04-28T04:04:55;145228.34;;;9.24;63.59
6853;BME280;3465;42.144;24.722;2023-04-28T04:07:21;145248.38;;;9.32;62.47
6853;BME280;3465;42.144;24.722;2023-04-28T04:09:46;145259.63;;;9.37;62.64
6853;BME280;3465;42.144;24.722;2023-04-28T04:12:12;145259.63;;;9.37;62.85
6853;BME280;3465;42.144;24.722;2023-04-28T04:14:37;145277.16;;;9.44;62.27
6853;BME280;3465;42.144;24.722;2023-04-28T04:17:03;145274.63;;;9.43;61.77
6853;BME280;3465;42.144;24.722;2023-04-28T04:19:28;145304.66;;;9.55;62.08
6853;BME280;3465;42.144;24.722;2023-04-28T04:21:54;145268.38;;;9.40;61.76
6853;BME280;3465;42.144;24.722;2023-04-28T04:24:19;145304.66;;;9.55;62.08
6853;BME280;3465;42.144;24.722;2023-04-28T04:26:45;145305.94;;;9.55;62.58
6853;BME280;3465;42.144;24.722;2023-04-28T04:29:10;145260.88;;;9.37;61.10
6853;BME280;3465;42.144;24.722;2023-04-28T04:31:36;145300.91;;;9.53;61.97
6853;BME280;3465;42.144;24.722;2023-04-28T04:34:01;145317.19;;;9.60;61.94
6853;BME280;3465;42.144;24.722;2023-04-28T04:36:27;145327.16;;;9.64;61.82
6853;BME280;3465;42.144;24.722;2023-04-28T04:38:52;145348.47;;;9.72;61.64
6853;BME280;3465;42.144;24.722;2023-04-28T04:41:18;145330.91;;;9.65;61.14
6853;BME280;3465;42.144;24.722;2023-04-28T04:43:46;145369.75;;;9.81;61.57
6853;BME280;3465;42.144;24.722;2023-04-28T04:46:12;145354.69;;;9.75;61.04
6853;BME280;3465;42.144;24.722;2023-04-28T04:48:38;145408.53;;;9.96;60.03
6853;BME280;3465;42.144;24.722;2023-04-28T04:51:03;145398.50;;;9.92;61.15
6853;BME280;3465;42.144;24.722;2023-04-28T04:53:29;145413.56;;;9.98;61.24
6853;BME280;3465;42.144;24.722;2023-04-28T04:55:54;145399.75;;;9.93;61.35
6853;BME280;3465;42.144;24.722;2023-04-28T04:58:19;145434.78;;;10.07;61.57
6853;BME280;3465;42.144;24.722;2023-04-28T05:00:45;145419.78;;;10.01;61.28
6853;BME280;3465;42.144;24.722;2023-04-28T05:03:10;145441.13;;;10.09;60.93
6853;BME280;3465;42.144;24.722;2023-04-28T05:05:36;145441.13;;;10.09;60.22
6853;BME280;3465;42.144;24.722;2023-04-28T05:08:01;145486.22;;;10.28;60.59
6853;BME280;3465;42.144;24.722;2023-04-28T05:10:27;145398.50;;;9.92;59.75
6853;BME280;3465;42.144;24.722;2023-04-28T05:12:53;145536.28;;;10.48;58.18
6853;BME280;3465;42.144;24.722;2023-04-28T05:15:18;145548.78;;;10.53;59.06
6853;BME280;3465;42.144;24.722;2023-04-28T05:17:44;145581.38;;;10.66;58.49
6853;BME280;3465;42.144;24.722;2023-04-28T05:20:10;145597.66;;;10.72;57.84
6853;BME280;3465;42.144;24.722;2023-04-28T05:22:35;145608.91;;;10.77;56.99
6853;BME280;3465;42.144;24.722;2023-04-28T05:25:00;145605.16;;;10.75;57.20
6853;BME280;3465;42.144;24.722;2023-04-28T05:27:26;145638.94;;;10.89;56.84
6853;BME280;3465;42.144;24.722;2023-04-28T05:29:51;145665.28;;;10.99;57.45
6853;BME280;3465;42.144;24.722;2023-04-28T05:32:17;145730.44;;;11.25;56.18
6853;BME280;3465;42.144;24.722;2023-04-28T05:34:42;145786.84;;;11.48;55.33
6853;BME280;3465;42.144;24.722;2023-04-28T05:37:07;145847.06;;;11.72;54.49
6853;BME280;3465;42.144;24.722;2023-04-28T05:39:33;145899.66;;;11.93;52.60
6853;BME280;3465;42.144;24.722;2023-04-28T05:41:58;145962.38;;;12.18;52.59
6853;BME280;3465;42.144;24.722;2023-04-28T05:44:24;146027.63;;;12.44;51.48
6853;BME280;3465;42.144;24.722;2023-04-28T05:46:49;146155.59;;;12.95;49.87
6853;BME280;3465;42.144;24.722;2023-04-28T05:49:15;146396.66;;;13.92;48.87
6853;BME280;3465;42.144;24.722;2023-04-28T05:51:40;146612.81;;;14.78;46.19
6853;BME280;3465;42.144;24.722;2023-04-28T05:54:06;146998.94;;;16.32;42.88
6853;BME280;3465;42.144;24.722;2023-04-28T05:56:32;147167.69;;;16.99;41.05
6853;BME280;3465;42.144;24.722;2023-04-28T05:58:57;147559.63;;;18.56;38.45
6853;BME280;3465;42.144;24.722;2023-04-28T06:01:23;147675.63;;;19.02;37.32
6853;BME280;3465;42.144;24.722;2023-04-28T06:03:48;147877.53;;;19.82;35.01
6853;BME280;3465;42.144;24.722;2023-04-28T06:06:14;148021.53;;;20.39;33.28
6853;BME280;3465;42.144;24.722;2023-04-28T06:08:39;148195.81;;;21.08;33.20
6853;BME280;3465;42.144;24.722;2023-04-28T06:11:05;148491.59;;;22.26;31.75
6853;BME280;3465;42.144;24.722;2023-04-28T06:13:31;148524.50;;;22.39;30.08
6853;BME280;3465;42.144;24.722;2023-04-28T06:15:56;148744.72;;;23.26;28.85
6853;BME280;3465;42.144;24.722;2023-04-28T06:18:22;148786.44;;;23.43;29.26
6853;BME280;3465;42.144;24.722;2023-04-28T06:20:48;149149.97;;;24.87;27.20
6853;BME280;3465;42.144;24.722;2023-04-28T06:23:14;149071.38;;;24.56;27.36
6853;BME280;3465;42.144;24.722;2023-04-28T06:25:39;149421.25;;;25.94;26.24
6853;BME280;3465;42.144;24.722;2023-04-28T06:28:05;149470.75;;;26.14;26.32
6853;BME280;3465;42.144;24.722;2023-04-28T06:30:33;149454.28;;;26.07;26.11
6853;BME280;3465;42.144;24.722;2023-04-28T06:32:59;149484.69;;;26.19;25.55
6853;BME280;3465;42.144;24.722;2023-04-28T06:35:24;149701.69;;;27.05;25.13
6853;BME280;3465;42.144;24.722;2023-04-28T06:37:50;149881.94;;;27.76;24.04
6853;BME280;3465;42.144;24.722;2023-04-28T06:40:15;149784.22;;;27.38;24.54
6853;BME280;3465;42.144;24.722;2023-04-28T06:42:41;149782.94;;;27.37;24.08
6853;BME280;3465;42.144;24.722;2023-04-28T06:45:07;149742.28;;;27.21;24.11
6853;BME280;3465;42.144;24.722;2023-04-28T06:47:32;149768.97;;;27.32;24.33
6853;BME280;3465;42.144;24.722;2023-04-28T06:49:58;149928.97;;;27.95;23.61
6853;BME280;3465;42.144;24.722;2023-04-28T06:52:23;150111.91;;;28.67;22.77
6853;BME280;3465;42.144;24.722;2023-04-28T06:54:49;150176.72;;;28.93;22.57
6853;BME280;3465;42.144;24.722;2023-04-28T06:57:16;150483.19;;;30.14;21.88
6853;BME280;3465;42.144;24.722;2023-04-28T06:59:41;150443.72;;;29.98;21.66
6853;BME280;3465;42.144;24.722;2023-04-28T07:02:09;150542.97;;;30.37;20.76
6853;BME280;3465;42.144;24.722;2023-04-28T07:04:35;150553.13;;;30.41;21.17
6853;BME280;3465;42.144;24.722;2023-04-28T07:07:00;150472.97;;;30.10;20.90
6853;BME280;3465;42.144;24.722;2023-04-28T07:09:26;150545.50;;;30.38;20.79
6853;BME280;3465;42.144;24.722;2023-04-28T07:11:51;150478.06;;;30.12;20.84
6853;BME280;3465;42.144;24.722;2023-04-28T07:14:16;150676.59;;;30.90;20.53
6853;BME280;3465;42.144;24.722;2023-04-28T07:16:42;150821.75;;;31.47;20.01
6853;BME280;3465;42.144;24.722;2023-04-28T07:19:07;150955.47;;;32.00;19.40
6853;BME280;3465;42.144;24.722;2023-04-28T07:21:33;151121.06;;;32.65;19.37
6853;BME280;3465;42.144;24.722;2023-04-28T07:23:58;151061.19;;;32.42;19.91
6853;BME280;3465;42.144;24.722;2023-04-28T07:26:24;151210.28;;;33.00;18.57
6853;BME280;3465;42.144;24.722;2023-04-28T07:28:49;151047.13;;;32.36;18.96
6853;BME280;3465;42.144;24.722;2023-04-28T07:31:16;151151.66;;;32.77;18.81
6853;BME280;3465;42.144;24.722;2023-04-28T07:33:41;151154.19;;;32.78;18.81
6853;BME280;3465;42.144;24.722;2023-04-28T07:36:07;151076.47;;;32.48;18.75
6853;BME280;3465;42.144;24.722;2023-04-28T07:38:33;151079.00;;;32.49;18.76
6853;BME280;3465;42.144;24.722;2023-04-28T07:40:59;151305.88;;;33.38;18.62
6853;BME280;3465;42.144;24.722;2023-04-28T07:43:25;151427.00;;;33.86;18.45
6853;BME280;3465;42.144;24.722;2023-04-28T07:45:50;151471.66;;;34.03;17.19
6853;BME280;3465;42.144;24.722;2023-04-28T07:48:16;151307.09;;;33.38;18.05
6853;BME280;3465;42.144;24.722;2023-04-28T07:50:41;151397.66;;;33.74;18.36
6853;BME280;3465;42.144;24.722;2023-04-28T07:53:07;151485.69;;;34.09;18.35
6853;BME280;3465;42.144;24.722;2023-04-28T07:55:33;151373.44;;;33.65;18.33
6853;BME280;3465;42.144;24.722;2023-04-28T07:57:58;151518.88;;;34.22;17.44
6853;BME280;3465;42.144;24.722;2023-04-28T08:00:24;151604.34;;;34.55;17.55
6853;BME280;3465;42.144;24.722;2023-04-28T08:02:50;151038.19;;;32.33;17.61
6853;BME280;3465;42.144;24.722;2023-04-28T08:05:15;151230.66;;;33.08;18.51
6853;BME280;3465;42.144;24.722;2023-04-28T08:07:41;151515.03;;;34.20;17.33
6853;BME280;3465;42.144;24.722;2023-04-28T08:10:09;151303.28;;;33.37;18.14
6853;BME280;3465;42.144;24.722;2023-04-28T08:12:34;151543.09;;;34.31;17.73
6853;BME280;3465;42.144;24.722;2023-04-28T08:15:00;151345.41;;;33.54;17.76
6853;BME280;3465;42.144;24.722;2023-04-28T08:17:25;151484.41;;;34.08;17.34
6853;BME280;3465;42.144;24.722;2023-04-28T08:19:51;151660.47;;;34.78;17.47
6853;BME280;3465;42.144;24.722;2023-04-28T08:22:16;151776.56;;;35.23;16.82
6853;BME280;3465;42.144;24.722;2023-04-28T08:24:41;151803.41;;;35.34;17.03
6853;BME280;3465;42.144;24.722;2023-04-28T08:27:07;151836.63;;;35.47;16.54
6853;BME280;3465;42.144;24.722;2023-04-28T08:29:33;151957.91;;;35.94;16.35
6853;BME280;3465;42.144;24.722;2023-04-28T08:31:58;151839.16;;;35.48;16.50
6853;BME280;3465;42.144;24.722;2023-04-28T08:34:26;151993.66;;;36.09;16.51
6853;BME280;3465;42.144;24.722;2023-04-28T08:36:51;151951.56;;;35.92;16.67
6853;BME280;3465;42.144;24.722;2023-04-28T08:39:17;151739.63;;;35.09;16.51
6853;BME280;3465;42.144;24.722;2023-04-28T08:41:44;151851.94;;;35.53;16.63
6853;BME280;3465;42.144;24.722;2023-04-28T08:44:10;151970.69;;;35.99;16.36
6853;BME280;3465;42.144;24.722;2023-04-28T08:46:45;151804.69;;;35.34;16.24
6853;BME280;3465;42.144;24.722;2023-04-28T08:49:16;151735.75;;;35.07;17.29
6853;BME280;3465;42.144;24.722;2023-04-28T08:51:54;151895.31;;;35.70;16.62
6853;BME280;3465;42.144;24.722;2023-04-28T08:54:22;151745.97;;;35.11;17.14
6853;BME280;3465;42.144;24.722;2023-04-28T08:56:47;151888.94;;;35.67;16.68
6853;BME280;3465;42.144;24.722;2023-04-28T08:59:13;151793.16;;;35.30;16.54
6853;BME280;3465;42.144;24.722;2023-04-28T09:01:39;151071.38;;;32.46;18.03
6853;BME280;3465;42.144;24.722;2023-04-28T09:04:05;150954.16;;;31.99;18.18
6853;BME280;3465;42.144;24.722;2023-04-28T09:06:35;151012.75;;;32.23;18.59
6853;BME280;3465;42.144;24.722;2023-04-28T09:09:37;151393.84;;;33.73;18.27
6853;BME280;3465;42.144;24.722;2023-04-28T09:12:02;151140.16;;;32.73;18.26
6853;BME280;3465;42.144;24.722;2023-04-28T09:14:33;151304.56;;;33.37;19.01
6853;BME280;3465;42.144;24.722;2023-04-28T09:16:58;151439.78;;;33.91;18.03
6853;BME280;3465;42.144;24.722;2023-04-28T09:19:32;151386.19;;;33.70;18.33
6853;BME280;3465;42.144;24.722;2023-04-28T09:21:58;151374.75;;;33.65;17.92
6853;BME280;3465;42.144;24.722;2023-04-28T09:24:42;151040.78;;;32.34;18.55
6853;BME280;3465;42.144;24.722;2023-04-28T09:27:09;150898.13;;;31.77;19.27
6853;BME280;3465;42.144;24.722;2023-04-28T09:29:51;151079.00;;;32.49;19.28
6853;BME280;3465;42.144;24.722;2023-04-28T09:32:20;151196.28;;;32.95;18.79
6853;BME280;3465;42.144;24.722;2023-04-28T09:37:15;150802.63;;;31.40;19.52
6853;BME280;3465;42.144;24.722;2023-04-28T09:39:49;151006.38;;;32.20;18.77
6853;BME280;3465;42.144;24.722;2023-04-28T09:42:36;151242.13;;;33.13;18.90
6853;BME280;3465;42.144;24.722;2023-04-28T09:45:10;150972.00;;;32.07;18.97
6853;BME280;3465;42.144;24.722;2023-04-28T09:47:40;150123.34;;;28.72;20.30
6853;BME280;3465;42.144;24.722;2023-04-28T09:50:08;149499.94;;;26.25;23.08
6853;BME280;3465;42.144;24.722;2023-04-28T09:52:36;149609.06;;;26.68;23.00
6853;BME280;3465;42.144;24.722;2023-04-28T09:55:04;149941.69;;;28.00;23.00
6853;BME280;3465;42.144;24.722;2023-04-28T09:57:32;150069.97;;;28.51;21.75
6853;BME280;3465;42.144;24.722;2023-04-28T09:59:59;150003.88;;;28.25;21.89
6853;BME280;3465;42.144;24.722;2023-04-28T10:02:25;150124.63;;;28.72;21.95
6853;BME280;3465;42.144;24.722;2023-04-28T10:04:51;150125.88;;;28.73;21.16
6853;BME280;3465;42.144;24.722;2023-04-28T10:07:18;150185.63;;;28.96;21.24
6853;BME280;3465;42.144;24.722;2023-04-28T10:09:45;150389.06;;;29.77;21.37
6853;BME280;3465;42.144;24.722;2023-04-28T10:12:21;150800.09;;;31.39;19.55
6853;BME280;3465;42.144;24.722;2023-04-28T10:14:47;151091.75;;;32.54;19.29
6853;BME280;3465;42.144;24.722;2023-04-28T10:17:22;150671.50;;;30.88;19.59
6853;BME280;3465;42.144;24.722;2023-04-28T10:19:53;150152.56;;;28.83;21.32
6853;BME280;3465;42.144;24.722;2023-04-28T10:25:28;150718.59;;;31.07;19.97
6853;BME280;3465;42.144;24.722;2023-04-28T10:27:56;150866.31;;;31.65;19.18
6853;BME280;3465;42.144;24.722;2023-04-28T10:30:25;150941.44;;;31.94;19.35
6853;BME280;3465;42.144;24.722;2023-04-28T10:40:38;150567.16;;;30.47;19.58
6853;BME280;3465;42.144;24.722;2023-04-28T10:43:05;150712.22;;;31.04;19.21
6853;BME280;3465;42.144;24.722;2023-04-28T10:48:18;151058.63;;;32.41;18.12
6853;BME280;3465;42.144;24.722;2023-04-28T10:56:22;150768.25;;;31.26;18.94
6853;BME280;3465;42.144;24.722;2023-04-28T10:58:57;150763.13;;;31.24;20.19
6853;BME280;3465;42.144;24.722;2023-04-28T11:03:58;150710.97;;;31.04;19.14
6853;BME280;3465;42.144;24.722;2023-04-28T11:19:18;149532.88;;;26.38;23.24
6853;BME280;3465;42.144;24.722;2023-04-28T11:21:45;149518.94;;;26.33;23.37
6853;BME280;3465;42.144;24.722;2023-04-28T11:24:12;149101.84;;;24.68;24.71
6853;BME280;3465;42.144;24.722;2023-04-28T11:26:37;149119.56;;;24.75;24.73
6853;BME280;3465;42.144;24.722;2023-04-28T11:29:03;149381.97;;;25.79;24.91
6853;BME280;3465;42.144;24.722;2023-04-28T11:31:29;149492.28;;;26.22;23.25
6853;BME280;3465;42.144;24.722;2023-04-28T11:34:02;149822.28;;;27.53;23.49
6853;BME280;3465;42.144;24.722;2023-04-28T11:38:55;150218.72;;;29.09;21.61
6853;BME280;3465;42.144;24.722;2023-04-28T11:41:23;150328.00;;;29.53;20.90
6853;BME280;3465;42.144;24.722;2023-04-28T11:43:49;150274.63;;;29.31;21.71
6853;BME280;3465;42.144;24.722;2023-04-28T11:46:16;150180.53;;;28.94;21.32
6853;BME280;3465;42.144;24.722;2023-04-28T11:48:42;149565.84;;;26.51;22.62
6853;BME280;3465;42.144;24.722;2023-04-28T11:51:07;149546.84;;;26.44;23.91
6853;BME280;3465;42.144;24.722;2023-04-28T11:53:43;149728.31;;;27.16;23.34
6853;BME280;3465;42.144;24.722;2023-04-28T11:56:09;149895.91;;;27.82;22.89
6853;BME280;3465;42.144;24.722;2023-04-28T11:58:34;149647.09;;;26.84;23.18
6853;BME280;3465;42.144;24.722;2023-04-28T12:01:10;149404.78;;;25.88;23.65
6853;BME280;3465;42.144;24.722;2023-04-28T12:03:46;148984.00;;;24.21;25.13
6853;BME280;3465;42.144;24.722;2023-04-28T12:06:16;149038.44;;;24.43;24.89
6853;BME280;3465;42.144;24.722;2023-04-28T12:08:44;149189.25;;;25.02;24.49
6853;BME280;3465;42.144;24.722;2023-04-28T12:11:11;149458.06;;;26.09;24.44
6853;BME280;3465;42.144;24.722;2023-04-28T12:13:42;149739.72;;;27.20;22.81
6853;BME280;3465;42.144;24.722;2023-04-28T12:16:07;149880.69;;;27.76;22.88
6853;BME280;3465;42.144;24.722;2023-04-28T12:18:34;149926.47;;;27.94;21.63
6853;BME280;3465;42.144;24.722;2023-04-28T12:21:03;149807.06;;;27.47;22.10
6853;BME280;3465;42.144;24.722;2023-04-28T12:23:34;149451.72;;;26.06;22.83
6853;BME280;3465;42.144;24.722;2023-04-28T12:26:01;149209.53;;;25.10;23.52
6853;BME280;3465;42.144;24.722;2023-04-28T12:28:39;149085.31;;;24.61;24.30
6853;BME280;3465;42.144;24.722;2023-04-28T12:31:07;149020.75;;;24.36;24.77
6853;BME280;3465;42.144;24.722;2023-04-28T12:33:34;149038.44;;;24.43;24.92
6853;BME280;3465;42.144;24.722;2023-04-28T12:36:02;149066.28;;;24.54;25.00
6853;BME280;3465;42.144;24.722;2023-04-28T12:38:28;149115.75;;;24.73;24.84
6853;BME280;3465;42.144;24.722;2023-04-28T12:40:55;149141.09;;;24.83;25.23
6853;BME280;3465;42.144;24.722;2023-04-28T12:43:21;149136.03;;;24.81;25.27
6853;BME280;3465;42.144;24.722;2023-04-28T12:45:52;149127.16;;;24.78;25.88
6853;BME280;3465;42.144;24.722;2023-04-28T12:48:17;149167.69;;;24.94;26.05
6853;BME280;3465;42.144;24.722;2023-04-28T12:50:43;149086.56;;;24.62;25.17
6853;BME280;3465;42.144;24.722;2023-04-28T12:53:09;148975.13;;;24.18;25.76
6853;BME280;3465;42.144;24.722;2023-04-28T12:55:35;148919.38;;;23.95;25.85
6853;BME280;3465;42.144;24.722;2023-04-28T12:58:01;148796.59;;;23.47;26.93
6853;BME280;3465;42.144;24.722;2023-04-28T13:00:26;148771.28;;;23.37;27.67
6853;BME280;3465;42.144;24.722;2023-04-28T13:02:51;148711.75;;;23.13;27.69
6853;BME280;3465;42.144;24.722;2023-04-28T13:05:17;148624.44;;;22.79;28.29
6853;BME280;3465;42.144;24.722;2023-04-28T13:07:43;148477.72;;;22.20;28.87
6853;BME280;3465;42.144;24.722;2023-04-28T13:10:09;148393.03;;;21.87;30.29
6853;BME280;3465;42.144;24.722;2023-04-28T13:12:35;148497.97;;;22.28;29.41
6853;BME280;3465;42.144;24.722;2023-04-28T13:15:01;148390.47;;;21.86;29.59
6853;BME280;3465;42.144;24.722;2023-04-28T13:17:26;148406.91;;;21.92;29.59
6853;BME280;3465;42.144;24.722;2023-04-28T13:19:52;148308.31;;;21.53;29.64
6853;BME280;3465;42.144;24.722;2023-04-28T13:22:17;148342.41;;;21.67;30.28
6853;BME280;3465;42.144;24.722;2023-04-28T13:24:43;148284.28;;;21.44;29.93
6853;BME280;3465;42.144;24.722;2023-04-28T13:27:09;148312.09;;;21.55;30.07
6853;BME280;3465;42.144;24.722;2023-04-28T13:29:35;148327.25;;;21.61;30.52
6853;BME280;3465;42.144;24.722;2023-04-28T13:32:01;148228.66;;;21.21;31.00
6853;BME280;3465;42.144;24.722;2023-04-28T13:34:26;148000.03;;;20.31;31.78
6853;BME280;3465;42.144;24.722;2023-04-28T13:36:52;148025.31;;;20.41;32.33
6853;BME280;3465;42.144;24.722;2023-04-28T13:39:19;148082.13;;;20.63;31.85